Time;durP1;ratioP1;P1;durP2;ratioP2;P2;SDS_P1;SDS_P2;PMS_P1;PMS_P2;Temp;Humidity;BMP_temperature;BMP_pressure;BME280_temperature;BME280_humidity;BME280_pressure;Samples;Min_cycle;Max_cycle;Signal;HPM_P1;HPM_P2
2021/07/26 00:01:26;;;;;;;10.93;7.00;;;18.10;99.80;;;;;;6124768;23;20437;-87
2021/07/26 00:03:54;;;;;;;9.93;7.13;;;18.00;99.80;;;;;;6124030;23;20792;-87
2021/07/26 00:06:22;;;;;;;11.20;7.77;;;18.10;99.80;;;;;;6123946;23;20400;-87
2021/07/26 00:08:50;;;;;;;12.13;7.30;;;18.10;99.80;;;;;;6123625;23;20407;-87
2021/07/26 00:11:18;;;;;;;19.63;7.93;;;18.00;99.80;;;;;;6123873;23;20422;-87
2021/07/26 00:13:46;;;;;;;11.93;8.20;;;18.00;99.80;;;;;;6124386;23;20458;-87
2021/07/26 00:16:14;;;;;;;8.80;6.57;;;18.00;99.80;;;;;;6123967;23;20789;-87
2021/07/26 00:18:43;;;;;;;8.50;7.07;;;18.00;99.80;;;;;;6124516;23;20967;-87
2021/07/26 00:21:11;;;;;;;16.23;8.60;;;18.00;99.80;;;;;;6123910;23;20502;-87
2021/07/26 00:23:39;;;;;;;11.80;7.50;;;18.00;99.80;;;;;;6124047;23;20414;-87
2021/07/26 00:26:07;;;;;;;12.93;6.50;;;17.90;99.80;;;;;;6123693;23;20419;-87
2021/07/26 00:28:35;;;;;;;12.03;7.93;;;17.90;99.80;;;;;;6123467;23;20490;-87
2021/07/26 00:31:03;;;;;;;14.27;7.17;;;17.90;99.80;;;;;;6123757;23;20418;-87
2021/07/26 00:34:24;;;;;;;13.20;7.20;;;17.90;99.80;;;;;;6123508;23;20419;-87
2021/07/26 00:36:54;;;;;;;11.03;7.13;;;17.90;99.80;;;;;;6123869;23;20386;-87
2021/07/26 00:39:24;;;;;;;13.50;6.73;;;17.90;99.80;;;;;;6123299;23;20482;-87
2021/07/26 00:41:53;;;;;;;16.50;6.33;;;17.90;99.80;;;;;;6124045;23;20683;-87
2021/07/26 00:44:23;;;;;;;8.70;6.50;;;17.80;99.80;;;;;;6123798;23;20438;-86
2021/07/26 00:46:52;;;;;;;8.33;6.70;;;17.90;99.80;;;;;;6123824;23;20402;-87
2021/07/26 00:49:21;;;;;;;17.33;6.23;;;17.80;99.80;;;;;;6084688;23;20438;-87
2021/07/26 00:51:52;;;;;;;10.27;6.40;;;17.80;99.80;;;;;;6120328;23;20446;-87
2021/07/26 00:54:21;;;;;;;11.00;7.60;;;17.80;99.80;;;;;;6120778;23;20439;-87
2021/07/26 00:56:52;;;;;;;10.97;6.83;;;17.70;99.80;;;;;;6119147;23;20445;-87
2021/07/26 00:59:20;;;;;;;11.23;6.97;;;17.70;99.80;;;;;;6117807;23;20439;-87
2021/07/26 01:01:48;;;;;;;7.83;6.97;;;17.70;99.80;;;;;;6117207;23;20439;-87
2021/07/26 01:04:16;;;;;;;12.37;6.83;;;17.60;99.80;;;;;;6089109;23;20550;-87
2021/07/26 01:06:45;;;;;;;10.50;6.70;;;17.60;99.80;;;;;;6110914;23;20438;-87
2021/07/26 01:09:15;;;;;;;11.87;7.60;;;17.60;99.80;;;;;;6107765;23;20453;-87
2021/07/26 01:11:44;;;;;;;10.03;7.47;;;17.60;99.80;;;;;;6104856;23;20442;-87
2021/07/26 01:14:15;;;;;;;12.43;7.60;;;17.50;99.80;;;;;;6093692;23;20446;-87
2021/07/26 01:16:43;;;;;;;14.13;7.00;;;17.60;99.80;;;;;;6110725;23;20433;-87
2021/07/26 01:19:12;;;;;;;12.63;7.47;;;17.50;99.80;;;;;;6112829;23;20443;-87
2021/07/26 01:21:42;;;;;;;13.33;6.77;;;17.50;99.80;;;;;;6116383;23;20514;-87
2021/07/26 01:24:10;;;;;;;15.67;7.10;;;17.50;99.80;;;;;;6119196;23;20435;-87
2021/07/26 01:26:38;;;;;;;10.40;8.13;;;17.50;99.80;;;;;;6109379;23;20460;-87
2021/07/26 01:29:07;;;;;;;10.27;6.97;;;17.40;99.80;;;;;;6109463;23;20453;-87
2021/07/26 01:31:35;;;;;;;12.20;7.63;;;17.40;99.80;;;;;;6104538;23;21039;-87
2021/07/26 01:34:04;;;;;;;11.23;7.20;;;17.40;99.80;;;;;;6114691;23;20435;-87
2021/07/26 01:36:32;;;;;;;8.00;7.20;;;17.40;99.80;;;;;;6108052;23;20443;-87
2021/07/26 01:39:01;;;;;;;12.43;6.90;;;17.40;99.80;;;;;;6101292;23;20935;-86
2021/07/26 01:41:35;;;;;;;11.27;7.10;;;17.40;99.80;;;;;;6113366;23;20441;-87
2021/07/26 01:44:06;;;;;;;10.03;7.90;;;17.40;99.80;;;;;;6111513;23;20444;-86
2021/07/26 01:46:50;;;;;;;12.10;7.63;;;17.40;99.80;;;;;;6107976;23;20446;-87
2021/07/26 01:49:53;;;;;;;18.80;7.67;;;17.40;99.80;;;;;;6118328;23;21075;-87
2021/07/26 01:52:22;;;;;;;10.90;7.23;;;17.30;99.80;;;;;;6118800;23;20452;-86
2021/07/26 01:54:52;;;;;;;13.37;7.10;;;17.20;99.80;;;;;;6117527;23;20964;-87
2021/07/26 01:57:21;;;;;;;8.80;5.90;;;17.20;99.80;;;;;;6106166;23;20435;-87
2021/07/26 01:59:49;;;;;;;33.10;7.13;;;17.20;99.80;;;;;;6098824;23;20969;-87
2021/07/26 02:02:17;;;;;;;14.73;6.43;;;17.10;99.80;;;;;;6119086;23;20799;-87
2021/07/26 02:04:45;;;;;;;7.40;5.47;;;17.10;99.80;;;;;;6123543;23;20446;-87
2021/07/26 02:07:13;;;;;;;6.60;5.50;;;17.10;99.80;;;;;;6123184;23;20421;-87
2021/07/26 02:09:41;;;;;;;9.60;6.17;;;17.00;99.80;;;;;;6123841;23;20405;-87
2021/07/26 02:12:10;;;;;;;12.80;7.43;;;17.00;99.80;;;;;;6124854;23;20401;-87
2021/07/26 02:14:38;;;;;;;10.07;7.27;;;17.00;99.80;;;;;;6124012;23;20425;-86
2021/07/26 02:17:07;;;;;;;7.37;6.60;;;17.00;99.80;;;;;;6123360;23;21124;-87
2021/07/26 02:19:35;;;;;;;10.70;7.47;;;17.10;99.80;;;;;;6123887;23;20406;-87
2021/07/26 02:22:04;;;;;;;8.10;6.93;;;17.10;99.80;;;;;;6123702;23;20442;-87
2021/07/26 02:24:32;;;;;;;9.40;8.00;;;17.10;99.80;;;;;;6123870;23;20517;-87
2021/07/26 02:27:00;;;;;;;9.67;7.57;;;17.20;99.80;;;;;;6124480;23;20730;-87
2021/07/26 02:29:29;;;;;;;13.57;8.63;;;17.20;99.80;;;;;;6124126;23;20403;-87
2021/07/26 02:31:57;;;;;;;12.03;8.83;;;17.30;99.80;;;;;;6123943;23;20724;-87
2021/07/26 02:34:25;;;;;;;11.13;8.53;;;17.30;99.80;;;;;;6125731;23;20419;-87
2021/07/26 02:36:53;;;;;;;11.47;7.33;;;17.30;99.80;;;;;;6084667;23;20439;-87
2021/07/26 02:39:21;;;;;;;10.73;7.80;;;17.40;99.80;;;;;;6117938;23;20445;-87
2021/07/26 02:41:48;;;;;;;10.57;7.97;;;17.40;99.80;;;;;;6115666;23;20446;-86
2021/07/26 02:44:16;;;;;;;16.40;7.33;;;17.40;99.80;;;;;;6110346;23;20445;-87
2021/07/26 02:46:46;;;;;;;11.53;7.77;;;17.40;99.80;;;;;;6104367;23;20438;-87
2021/07/26 02:49:14;;;;;;;11.37;7.70;;;17.40;99.80;;;;;;6117181;23;20439;-87
2021/07/26 02:51:42;;;;;;;14.40;8.50;;;17.40;99.80;;;;;;6117608;23;20468;-87
2021/07/26 02:54:09;;;;;;;16.33;8.17;;;17.40;99.80;;;;;;6113114;23;20439;-87
2021/07/26 02:56:37;;;;;;;14.90;8.97;;;17.40;99.80;;;;;;6100491;23;20466;-87
2021/07/26 02:59:05;;;;;;;20.77;8.30;;;17.40;99.80;;;;;;6098787;23;21210;-87
2021/07/26 03:01:34;;;;;;;15.53;9.00;;;17.40;99.80;;;;;;6104909;23;20445;-87
2021/07/26 03:04:04;;;;;;;12.60;8.77;;;17.40;99.80;;;;;;6119067;23;20427;-87
2021/07/26 03:06:32;;;;;;;10.63;8.40;;;17.40;99.80;;;;;;6105970;23;20440;-87
2021/07/26 03:09:00;;;;;;;20.93;9.20;;;17.40;99.80;;;;;;6111027;23;20469;-87
2021/07/26 03:11:28;;;;;;;8.30;7.30;;;17.40;99.80;;;;;;6113358;23;20438;-87
2021/07/26 03:13:56;;;;;;;11.90;7.30;;;17.30;99.80;;;;;;6105255;23;20443;-87
2021/07/26 03:16:24;;;;;;;10.00;6.87;;;;;;;;;;6111785;23;20522;-87
2021/07/26 03:18:52;;;;;;;12.67;7.90;;;17.30;99.80;;;;;;6116876;23;20435;-87
2021/07/26 03:21:22;;;;;;;12.43;7.50;;;17.30;99.80;;;;;;6119396;23;20770;-87
2021/07/26 03:23:51;;;;;;;11.73;7.67;;;17.30;99.80;;;;;;6117863;23;20529;-86
2021/07/26 03:26:19;;;;;;;13.80;7.13;;;17.20;99.80;;;;;;6107161;23;20793;-87
2021/07/26 03:28:47;;;;;;;11.30;7.30;;;17.20;99.80;;;;;;6113544;23;20434;-87
2021/07/26 03:31:15;;;;;;;17.67;7.97;;;17.10;99.80;;;;;;6112155;23;20469;-86
2021/07/26 03:33:44;;;;;;;16.57;9.33;;;17.10;99.80;;;;;;6109115;23;20508;-87
2021/07/26 03:36:14;;;;;;;15.97;8.77;;;17.10;99.80;;;;;;6112658;23;20442;-87
2021/07/26 03:38:44;;;;;;;11.90;7.70;;;17.10;99.80;;;;;;6112543;23;20445;-87
2021/07/26 03:41:11;;;;;;;10.90;7.83;;;17.10;99.80;;;;;;6104163;23;20469;-87
2021/07/26 03:43:39;;;;;;;13.07;9.07;;;17.10;99.80;;;;;;6112400;23;20457;-86
2021/07/26 03:46:07;;;;;;;13.20;8.93;;;17.10;99.80;;;;;;6112459;23;20468;-87
2021/07/26 03:48:35;;;;;;;18.93;9.20;;;17.10;99.80;;;;;;6112827;23;20442;-87
2021/07/26 03:51:03;;;;;;;10.90;8.57;;;17.10;99.80;;;;;;6118303;23;20465;-87
2021/07/26 03:53:31;;;;;;;16.10;8.80;;;17.10;99.80;;;;;;6116343;23;20438;-87
2021/07/26 03:56:00;;;;;;;17.13;8.53;;;17.10;99.80;;;;;;6119583;23;20443;-87
2021/07/26 03:58:28;;;;;;;17.33;8.80;;;17.10;99.80;;;;;;6108351;23;20439;-87
2021/07/26 04:00:56;;;;;;;17.50;9.10;;;17.10;99.80;;;;;;6078414;23;20513;-87
2021/07/26 04:03:28;;;;;;;14.43;9.80;;;17.10;99.80;;;;;;6127761;23;20435;-87
2021/07/26 04:06:01;;;;;;;11.70;8.20;;;17.10;99.80;;;;;;6118311;23;20848;-87
2021/07/26 04:08:32;;;;;;;20.53;8.60;;;17.20;99.80;;;;;;6097366;23;20443;-86
2021/07/26 04:11:05;;;;;;;13.17;9.77;;;17.20;99.80;;;;;;6112988;23;20778;-86
2021/07/26 04:13:35;;;;;;;28.50;10.60;;;17.20;99.80;;;;;;6106172;23;20436;-86
2021/07/26 04:16:04;;;;;;;10.77;8.23;;;17.20;99.80;;;;;;6111887;23;20442;-87
2021/07/26 04:18:31;;;;;;;12.67;9.03;;;17.20;99.80;;;;;;6115229;23;20446;-86
2021/07/26 04:21:00;;;;;;;11.87;8.77;;;17.20;99.80;;;;;;6115840;23;20462;-86
2021/07/26 04:23:28;;;;;;;13.30;8.00;;;17.30;99.80;;;;;;6117936;23;20489;-85
2021/07/26 04:25:56;;;;;;;12.50;8.07;;;17.30;99.80;;;;;;6116674;23;20444;-86
2021/07/26 04:28:26;;;;;;;14.53;10.00;;;17.30;99.80;;;;;;6109482;23;20445;-86
2021/07/26 04:30:54;;;;;;;12.70;8.10;;;17.30;99.80;;;;;;6105402;23;20447;-86
2021/07/26 04:33:22;;;;;;;15.10;8.53;;;17.30;99.80;;;;;;6106128;23;20430;-86
2021/07/26 04:35:50;;;;;;;11.50;9.07;;;17.40;99.80;;;;;;6112248;23;20439;-85
2021/07/26 04:38:18;;;;;;;14.43;8.43;;;17.40;99.80;;;;;;6116044;23;20439;-86
2021/07/26 04:40:45;;;;;;;14.27;8.70;;;17.40;99.80;;;;;;6091438;23;20442;-86
2021/07/26 04:43:13;;;;;;;12.97;7.93;;;17.50;99.80;;;;;;6083891;23;20451;-86
2021/07/26 04:45:43;;;;;;;16.23;8.50;;;17.50;99.80;;;;;;6093666;23;20447;-86
2021/07/26 04:48:11;;;;;;;12.00;8.40;;;17.60;99.80;;;;;;6096692;23;20450;-86
2021/07/26 04:50:39;;;;;;;14.80;8.13;;;17.60;99.80;;;;;;6106017;23;20442;-86
2021/07/26 04:53:06;;;;;;;14.20;7.77;;;17.60;99.80;;;;;;6110500;23;20443;-86
2021/07/26 04:55:34;;;;;;;11.90;7.80;;;17.60;99.80;;;;;;6092461;23;20442;-86
2021/07/26 04:58:02;;;;;;;11.90;8.30;;;17.60;99.80;;;;;;6110225;23;20434;-86
2021/07/26 05:00:30;;;;;;;12.07;8.70;;;17.60;99.80;;;;;;6088350;23;20913;-86
2021/07/26 05:03:00;;;;;;;11.27;8.03;;;17.60;99.80;;;;;;6107162;23;20435;-86
2021/07/26 05:05:28;;;;;;;13.20;8.43;;;17.60;99.80;;;;;;6117738;23;20498;-86
2021/07/26 05:07:56;;;;;;;13.47;8.43;;;17.60;99.80;;;;;;6118534;23;21002;-86
2021/07/26 05:10:24;;;;;;;16.83;8.83;;;17.60;99.80;;;;;;6113134;23;20782;-86
2021/07/26 05:12:51;;;;;;;10.53;8.57;;;17.70;99.80;;;;;;6113040;23;20465;-86
2021/07/26 05:15:19;;;;;;;15.00;9.07;;;17.70;99.80;;;;;;6108850;23;20441;-86
2021/07/26 05:17:47;;;;;;;12.80;9.77;;;17.80;99.80;;;;;;6107817;23;20443;-86
2021/07/26 05:20:17;;;;;;;14.43;9.53;;;17.90;99.80;;;;;;6094834;23;20434;-86
2021/07/26 05:22:45;;;;;;;12.57;10.17;;;17.90;99.80;;;;;;6106178;23;20468;-86
2021/07/26 05:25:15;;;;;;;13.43;10.17;;;18.00;99.80;;;;;;6103790;23;20514;-86
2021/07/26 05:27:43;;;;;;;11.57;9.17;;;18.10;99.80;;;;;;6108530;23;20493;-86
2021/07/26 05:30:12;;;;;;;14.77;10.20;;;18.10;99.80;;;;;;6103454;23;20435;-86
2021/07/26 05:32:40;;;;;;;13.20;10.00;;;18.10;99.80;;;;;;6115596;23;20437;-86
2021/07/26 05:35:09;;;;;;;16.77;10.23;;;18.20;99.80;;;;;;6113977;23;20446;-86
2021/07/26 05:37:39;;;;;;;18.37;10.63;;;18.20;99.80;;;;;;6116662;23;20776;-85
2021/07/26 05:40:08;;;;;;;20.00;11.67;;;18.30;99.80;;;;;;6117146;23;20805;-86
2021/07/26 05:42:36;;;;;;;14.40;10.03;;;18.30;99.80;;;;;;6106037;23;20438;-85
2021/07/26 05:45:04;;;;;;;13.93;11.07;;;18.40;99.80;;;;;;6101552;23;20451;-86
2021/07/26 05:47:32;;;;;;;15.83;10.90;;;18.40;99.80;;;;;;6091847;23;20797;-88
2021/07/26 05:50:00;;;;;;;16.90;11.10;;;18.50;99.80;;;;;;6119993;23;20431;-87
2021/07/26 05:52:28;;;;;;;16.43;11.43;;;18.50;99.80;;;;;;6105561;23;20427;-86
2021/07/26 05:54:58;;;;;;;17.63;11.20;;;18.60;99.80;;;;;;6111642;23;20447;-86
2021/07/26 05:57:26;;;;;;;17.63;10.43;;;18.70;99.80;;;;;;6106160;23;20446;-86
2021/07/26 05:59:57;;;;;;;16.10;11.30;;;18.70;99.80;;;;;;6087184;23;20525;-86
2021/07/26 06:02:25;;;;;;;13.77;10.63;;;18.80;99.80;;;;;;6098663;23;20438;-86
2021/07/26 06:04:53;;;;;;;13.73;10.60;;;18.90;99.80;;;;;;6115665;23;20959;-87
2021/07/26 06:07:21;;;;;;;16.73;10.60;;;19.00;99.80;;;;;;6111585;23;20444;-87
2021/07/26 06:09:50;;;;;;;15.97;10.60;;;19.00;99.80;;;;;;6114238;23;20440;-86
2021/07/26 06:12:19;;;;;;;19.23;11.57;;;19.10;99.80;;;;;;6115625;23;20554;-86
2021/07/26 06:14:48;;;;;;;16.00;10.20;;;19.20;99.80;;;;;;6108107;23;20526;-87
2021/07/26 06:17:17;;;;;;;14.77;11.10;;;19.30;99.80;;;;;;6105863;23;20442;-86
2021/07/26 06:19:45;;;;;;;15.37;10.87;;;19.40;99.80;;;;;;6112440;23;20439;-86
2021/07/26 06:22:16;;;;;;;13.53;10.80;;;19.50;99.80;;;;;;6114893;23;20435;-86
2021/07/26 06:24:44;;;;;;;13.13;9.97;;;19.60;99.80;;;;;;6104342;23;20445;-86
2021/07/26 06:27:12;;;;;;;15.37;10.13;;;19.60;99.80;;;;;;6104227;23;20447;-87
2021/07/26 06:29:42;;;;;;;14.97;10.90;;;19.70;99.80;;;;;;6110623;23;20438;-87
2021/07/26 06:32:10;;;;;;;18.23;11.17;;;19.70;99.80;;;;;;6104413;23;21166;-87
2021/07/26 06:34:38;;;;;;;16.13;10.40;;;19.80;99.80;;;;;;6113468;23;21031;-87
2021/07/26 06:37:06;;;;;;;11.60;9.53;;;19.90;99.80;;;;;;6106825;23;20812;-86
2021/07/26 06:39:34;;;;;;;13.23;9.60;;;19.90;99.80;;;;;;6100289;23;20453;-87
2021/07/26 06:42:03;;;;;;;13.17;9.50;;;20.10;99.80;;;;;;6103580;23;21198;-86
2021/07/26 06:44:31;;;;;;;12.10;8.77;;;20.10;99.80;;;;;;6095233;23;20445;-87
2021/07/26 06:47:00;;;;;;;10.77;8.57;;;20.30;99.80;;;;;;6099801;23;20443;-87
2021/07/26 06:49:29;;;;;;;12.80;8.80;;;20.40;99.80;;;;;;6116310;23;20466;-87
2021/07/26 06:51:57;;;;;;;11.47;8.50;;;20.40;99.80;;;;;;6117622;23;20470;-86
2021/07/26 06:54:25;;;;;;;12.27;8.93;;;20.50;99.80;;;;;;6113350;23;20952;-87
2021/07/26 06:56:53;;;;;;;12.27;8.40;;;20.60;99.80;;;;;;6098169;23;20474;-87
2021/07/26 06:59:21;;;;;;;10.10;8.03;;;20.70;99.80;;;;;;6097973;23;20499;-87
2021/07/26 07:01:49;;;;;;;10.93;7.87;;;20.80;99.80;;;;;;6076919;23;20439;-87
2021/07/26 07:04:19;;;;;;;10.30;8.27;;;20.90;99.80;;;;;;6115525;23;20514;-87
2021/07/26 07:06:47;;;;;;;12.37;8.40;;;21.10;99.80;;;;;;6099053;23;20957;-87
2021/07/26 07:09:15;;;;;;;14.70;8.03;;;21.10;99.80;;;;;;6089125;23;20809;-87
2021/07/26 07:11:43;;;;;;;8.67;7.60;;;21.30;99.80;;;;;;6088204;23;20444;-88
2021/07/26 07:14:11;;;;;;;13.57;7.27;;;21.30;99.80;;;;;;6074063;23;21046;-87
2021/07/26 07:16:39;;;;;;;10.13;6.70;;;21.30;99.80;;;;;;6099430;23;20817;-87
2021/07/26 07:19:07;;;;;;;7.40;6.70;;;21.30;99.80;;;;;;6115948;23;20439;-89
2021/07/26 07:21:37;;;;;;;10.90;6.83;;;21.40;99.80;;;;;;6115855;23;20442;-88
2021/07/26 07:24:05;;;;;;;9.57;6.37;;;21.50;99.80;;;;;;6118193;23;21046;-87
2021/07/26 07:26:35;;;;;;;10.53;5.50;;;21.60;99.80;;;;;;6114617;23;20433;-86
2021/07/26 07:29:04;;;;;;;10.73;6.87;;;21.70;99.80;;;;;;6101203;23;20438;-87
2021/07/26 07:31:36;;;;;;;7.70;6.00;;;21.80;99.80;;;;;;6098656;23;20445;-88
2021/07/26 07:34:05;;;;;;;8.83;5.90;;;21.80;99.80;;;;;;6113283;23;20447;-87
2021/07/26 07:36:33;;;;;;;6.30;5.47;;;21.80;99.80;;;;;;6105498;23;20436;-87
2021/07/26 07:39:03;;;;;;;6.00;5.17;;;21.90;99.80;;;;;;6090771;23;20450;-87
2021/07/26 07:41:34;;;;;;;7.43;5.70;;;22.00;99.80;;;;;;6093488;23;20434;-88
2021/07/26 07:44:02;;;;;;;6.50;5.80;;;22.10;99.80;;;;;;6093934;23;20610;-88
2021/07/26 07:46:30;;;;;;;7.80;5.17;;;22.20;99.80;;;;;;6085861;23;20490;-88
2021/07/26 07:48:58;;;;;;;6.80;5.70;;;22.30;99.80;;;;;;6111019;23;20437;-89
2021/07/26 07:51:26;;;;;;;7.87;5.63;;;22.40;99.80;;;;;;6114075;23;20955;-90
2021/07/26 07:53:56;;;;;;;7.53;4.93;;;22.40;99.80;;;;;;6115890;23;20514;-89
2021/07/26 07:56:25;;;;;;;7.00;5.20;;;22.40;99.80;;;;;;6112171;23;20465;-88
2021/07/26 07:58:55;;;;;;;5.57;4.27;;;22.50;99.80;;;;;;6093217;23;20447;-89
2021/07/26 08:01:30;;;;;;;5.63;4.93;;;22.50;99.80;;;;;;6089534;23;20460;-89
2021/07/26 08:03:59;;;;;;;8.43;4.60;;;22.60;99.80;;;;;;6116793;23;20549;-91
2021/07/26 08:06:27;;;;;;;7.70;5.57;;;22.70;99.80;;;;;;6118570;23;20955;-88
2021/07/26 08:08:55;;;;;;;6.50;4.00;;;22.80;99.80;;;;;;6087265;23;20438;-89
2021/07/26 08:11:23;;;;;;;6.47;4.67;;;22.90;99.80;;;;;;6093022;23;21061;-89
2021/07/26 08:13:52;;;;;;;4.60;4.20;;;23.00;99.80;;;;;;6090196;23;20470;-90
2021/07/26 08:16:23;;;;;;;6.30;5.27;;;23.00;99.80;;;;;;6080742;23;20439;-89
2021/07/26 08:18:57;;;;;;;5.00;4.30;;;23.10;99.80;;;;;;6095184;23;20438;-89
2021/07/26 08:21:28;;;;;;;8.00;4.87;;;23.30;99.80;;;;;;6079704;23;20434;-89
2021/07/26 08:23:58;;;;;;;5.40;4.87;;;23.30;99.80;;;;;;6089975;23;20463;-89
2021/07/26 08:26:26;;;;;;;5.20;4.70;;;23.40;99.80;;;;;;6088983;23;21358;-89
2021/07/26 08:28:55;;;;;;;9.67;5.77;;;23.50;99.80;;;;;;6078987;23;20830;-89
2021/07/26 08:31:23;;;;;;;4.80;4.10;;;23.50;99.80;;;;;;6099011;23;20998;-88
2021/07/26 08:33:51;;;;;;;4.73;4.20;;;23.60;99.80;;;;;;6103938;23;20513;-88
2021/07/26 08:36:19;;;;;;;4.83;4.43;;;23.70;99.80;;;;;;6116262;23;21144;-89
2021/07/26 08:38:47;;;;;;;5.23;4.30;;;23.70;99.80;;;;;;6119273;23;20908;-89
2021/07/26 08:41:16;;;;;;;7.87;4.23;;;23.80;99.80;;;;;;6095946;23;20437;-88
2021/07/26 08:43:47;;;;;;;10.50;3.80;;;23.80;99.80;;;;;;6088067;23;20535;-90
2021/07/26 08:46:19;;;;;;;4.93;3.60;;;23.90;99.80;;;;;;6090464;23;20990;-89
2021/07/26 08:48:48;;;;;;;4.30;3.50;;;24.00;99.80;;;;;;6102963;23;21027;-89
2021/07/26 08:51:19;;;;;;;3.47;3.20;;;24.10;99.80;;;;;;6090056;23;20438;-88
2021/07/26 08:53:50;;;;;;;3.90;3.50;;;24.10;99.80;;;;;;6084068;23;20513;-88
2021/07/26 08:56:19;;;;;;;3.57;3.27;;;24.10;99.80;;;;;;6081616;23;20473;-90
2021/07/26 08:58:51;;;;;;;4.40;3.70;;;24.30;99.80;;;;;;6092559;23;20986;-89
2021/07/26 09:01:21;;;;;;;4.60;2.97;;;24.40;99.80;;;;;;6074910;23;20970;-89
2021/07/26 09:03:52;;;;;;;5.23;3.60;;;24.50;99.80;;;;;;6127020;23;20832;-88
2021/07/26 09:06:21;;;;;;;3.60;3.30;;;24.70;99.80;;;;;;6115408;23;20506;-88
2021/07/26 09:08:49;;;;;;;3.60;3.33;;;24.70;99.80;;;;;;6113738;23;20438;-88
2021/07/26 09:11:17;;;;;;;3.47;3.17;;;24.80;95.30;;;;;;6104607;23;20509;-89
2021/07/26 09:13:45;;;;;;;3.23;2.90;;;24.80;98.70;;;;;;6093260;23;20446;-89
2021/07/26 09:16:18;;;;;;;3.20;2.87;;;24.90;97.50;;;;;;6076010;23;20924;-89
2021/07/26 09:19:00;;;;;;;2.70;2.50;;;25.00;95.80;;;;;;6107903;23;20947;-89
2021/07/26 09:21:50;;;;;;;3.83;3.17;;;25.00;95.90;;;;;;6104503;23;20949;-88
2021/07/26 09:24:26;;;;;;;3.53;3.20;;;25.10;97.10;;;;;;6090972;23;20453;-89
2021/07/26 09:26:56;;;;;;;6.70;3.23;;;25.20;97.00;;;;;;6076047;23;20450;-88
2021/07/26 09:29:27;;;;;;;3.10;2.90;;;25.30;97.00;;;;;;6070494;23;20435;-88
2021/07/26 09:31:59;;;;;;;3.20;2.80;;;25.40;93.20;;;;;;6088172;23;20443;-88
2021/07/26 09:34:30;;;;;;;3.73;2.60;;;25.60;93.90;;;;;;6128384;23;20443;-89
2021/07/26 09:36:58;;;;;;;3.07;2.87;;;25.60;92.40;;;;;;6111360;23;20449;-89
2021/07/26 09:39:27;;;;;;;3.70;3.20;;;25.50;91.40;;;;;;6116471;23;20441;-89
2021/07/26 09:41:58;;;;;;;3.43;2.80;;;25.60;91.60;;;;;;6104027;23;20438;-88
2021/07/26 09:44:27;;;;;;;3.80;3.30;;;25.60;91.50;;;;;;6084050;23;21009;-89
2021/07/26 09:47:23;;;;;;;5.60;3.20;;;25.70;93.00;;;;;;6089373;23;20526;-89
2021/07/26 09:49:52;;;;;;;2.87;2.67;;;25.90;92.60;;;;;;6116755;23;20935;-89
2021/07/26 09:52:23;;;;;;;3.30;3.00;;;26.00;90.80;;;;;;6114483;23;20954;-90
2021/07/26 09:54:52;;;;;;;3.63;3.10;;;26.10;90.60;;;;;;6079485;23;20445;-89
2021/07/26 09:57:22;;;;;;;2.90;2.70;;;26.10;89.10;;;;;;6100577;23;20763;-89
2021/07/26 09:59:51;;;;;;;3.60;3.30;;;26.10;91.00;;;;;;6070288;23;20443;-90
2021/07/26 10:02:20;;;;;;;3.27;2.97;;;26.20;90.50;;;;;;6089938;23;20453;-89
2021/07/26 10:04:50;;;;;;;2.47;2.30;;;26.30;90.20;;;;;;6094154;23;20955;-89
2021/07/26 10:07:20;;;;;;;3.47;3.17;;;26.40;89.30;;;;;;6091876;23;20453;-89
2021/07/26 10:09:50;;;;;;;1.97;1.87;;;26.40;87.30;;;;;;6077021;23;20465;-88
2021/07/26 10:12:20;;;;;;;3.00;2.80;;;26.50;86.80;;;;;;6093079;23;20439;-90
2021/07/26 10:14:50;;;;;;;4.73;2.57;;;26.50;85.80;;;;;;6076613;23;20955;-89
2021/07/26 10:17:19;;;;;;;2.63;2.43;;;26.50;86.20;;;;;;6090722;23;20598;-88
2021/07/26 10:19:47;;;;;;;3.63;2.77;;;26.50;86.80;;;;;;6115778;23;20517;-89
2021/07/26 10:22:22;;;;;;;3.20;2.60;;;26.60;87.40;;;;;;6113845;23;20506;-88
2021/07/26 10:24:55;;;;;;;3.03;2.73;;;26.80;85.70;;;;;;6102672;23;20447;-88
2021/07/26 10:27:29;;;;;;;5.90;2.70;;;26.90;87.50;;;;;;6083580;23;20485;-88
2021/07/26 10:29:58;;;;;;;3.27;2.97;;;26.90;87.30;;;;;;6091214;23;20466;-88
2021/07/26 10:32:39;;;;;;;3.27;2.43;;;27.00;88.20;;;;;;6081877;23;20426;-89
2021/07/26 10:35:49;;;;;;;5.63;2.70;;;27.00;88.30;;;;;;6100654;23;20450;-88
2021/07/26 10:39:02;;;;;;;2.97;2.70;;;27.10;90.30;;;;;;6086859;23;20859;-89
2021/07/26 10:42:02;;;;;;;2.93;2.67;;;27.60;89.20;;;;;;5951216;23;20442;-88
2021/07/26 10:44:49;;;;;;;3.40;2.83;;;27.60;89.20;;;;;;6079409;23;20424;-88
2021/07/26 10:47:20;;;;;;;3.00;2.80;;;28.00;87.40;;;;;;6090869;23;20435;-88
2021/07/26 10:50:14;;;;;;;3.03;2.83;;;28.30;83.80;;;;;;6125245;23;20513;-89
2021/07/26 10:52:52;;;;;;;2.93;2.73;;;28.40;84.20;;;;;;6115217;23;20439;-89
2021/07/26 10:55:54;;;;;;;3.47;3.17;;;28.20;86.10;;;;;;6116087;23;20521;-89
2021/07/26 10:59:01;;;;;;;7.60;3.30;;;28.20;85.60;;;;;;6090677;23;20488;-88
2021/07/26 11:02:04;;;;;;;3.23;2.70;;;28.60;85.40;;;;;;6082569;23;20439;-88
2021/07/26 11:04:43;;;;;;;5.20;2.80;;;29.10;82.70;;;;;;6122119;23;20438;-90
2021/07/26 11:07:28;;;;;;;3.17;2.80;;;29.40;81.70;;;;;;6077467;23;20445;-89
2021/07/26 11:09:57;;;;;;;3.70;3.33;;;29.10;79.80;;;;;;6114274;23;20517;-89
2021/07/26 11:12:56;;;;;;;2.90;2.53;;;28.60;84.40;;;;;;6095505;23;20502;-89
2021/07/26 11:15:25;;;;;;;3.00;2.80;;;28.10;83.90;;;;;;6095775;23;20450;-89
2021/07/26 11:18:31;;;;;;;3.50;3.20;;;27.90;84.40;;;;;;6090393;23;20904;-90
2021/07/26 11:21:05;;;;;;;3.57;3.00;;;27.80;86.00;;;;;;6112961;23;20522;-89
2021/07/26 11:23:38;;;;;;;3.20;2.90;;;27.70;87.10;;;;;;6119174;23;20958;-89
2021/07/26 11:26:14;;;;;;;3.10;2.57;;;27.50;85.30;;;;;;6119339;23;20433;-89
2021/07/26 11:28:43;;;;;;;3.27;2.97;;;27.30;87.30;;;;;;6092266;23;20999;-90
2021/07/26 11:31:11;;;;;;;2.37;2.17;;;27.20;87.50;;;;;;6089604;23;20513;-90
2021/07/26 11:33:39;;;;;;;3.70;2.90;;;;;;;;;;6103902;23;20509;-89
2021/07/26 11:36:12;;;;;;;4.13;2.97;;;27.10;87.00;;;;;;6119715;23;20441;-88
2021/07/26 11:39:06;;;;;;;3.87;2.70;;;27.00;86.70;;;;;;6091690;23;20438;-89
2021/07/26 11:41:50;;;;;;;4.90;3.23;;;26.80;85.90;;;;;;6087916;23;20766;-86
2021/07/26 11:44:27;;;;;;;3.07;2.77;;;26.80;85.90;;;;;;6081389;23;20445;-86
2021/07/26 11:46:56;;;;;;;4.57;3.17;;;26.90;86.30;;;;;;6086539;23;20466;-86
2021/07/26 11:49:24;;;;;;;2.40;2.30;;;26.90;86.30;;;;;;6081448;23;20435;-86
2021/07/26 11:52:05;;;;;;;3.03;2.77;;;27.90;83.10;;;;;;6087880;23;20509;-88
2021/07/26 11:54:34;;;;;;;3.37;2.83;;;;;;;;;;6075647;23;20439;-87
2021/07/26 11:57:06;;;;;;;2.53;2.33;;;28.80;82.90;;;;;;6098148;23;21019;-87
2021/07/26 11:59:35;;;;;;;4.23;3.00;;;29.10;80.20;;;;;;6046406;23;20437;-86
2021/07/26 12:02:07;;;;;;;3.33;3.10;;;29.20;80.30;;;;;;6072635;23;20443;-86
2021/07/26 12:04:36;;;;;;;3.20;2.93;;;28.90;80.70;;;;;;6114270;23;20443;-86
2021/07/26 12:07:06;;;;;;;2.70;2.50;;;28.40;81.00;;;;;;6113720;23;20439;-87
2021/07/26 12:09:36;;;;;;;3.10;2.90;;;27.70;82.40;;;;;;6088290;23;20499;-86
2021/07/26 12:12:11;;;;;;;3.53;2.60;;;27.20;84.60;;;;;;6083953;23;20442;-86
2021/07/26 12:14:41;;;;;;;3.03;2.73;;;26.80;85.90;;;;;;6069764;23;20513;-86
2021/07/26 12:17:11;;;;;;;2.40;2.20;;;26.40;86.70;;;;;;6095974;23;20520;-87
2021/07/26 12:19:41;;;;;;;2.67;2.47;;;26.40;86.70;;;;;;6095884;23;20486;-86
2021/07/26 12:22:18;;;;;;;3.83;2.70;;;25.90;86.50;;;;;;6045517;23;20445;-87
2021/07/26 12:25:17;;;;;;;5.50;2.93;;;25.60;89.40;;;;;;6084494;23;20510;-86
2021/07/26 12:27:55;;;;;;;2.60;2.33;;;25.60;89.30;;;;;;6094389;23;20448;-86
2021/07/26 12:30:33;;;;;;;3.60;3.30;;;25.30;88.60;;;;;;6073874;23;20654;-86
2021/07/26 12:33:01;;;;;;;3.93;2.33;;;25.30;88.60;;;;;;6099434;23;20878;-86
2021/07/26 12:35:30;;;;;;;3.00;2.80;;;25.10;90.80;;;;;;6113455;23;20439;-86
2021/07/26 12:38:07;;;;;;;4.63;2.90;;;25.00;91.30;;;;;;6113965;23;20441;-86
2021/07/26 12:40:37;;;;;;;4.97;3.40;;;24.70;91.30;;;;;;6106804;23;20431;-86
2021/07/26 12:43:10;;;;;;;3.70;3.10;;;24.60;92.90;;;;;;6099633;23;20442;-86
2021/07/26 12:45:39;;;;;;;3.60;3.20;;;24.60;92.80;;;;;;6108207;23;20450;-86
2021/07/26 12:48:14;;;;;;;3.00;2.70;;;24.40;96.10;;;;;;6094001;23;20466;-85
2021/07/26 12:50:43;;;;;;;3.67;3.27;;;24.40;95.00;;;;;;6108570;23;21127;-86
2021/07/26 12:53:13;;;;;;;5.03;2.90;;;24.40;96.10;;;;;;6105745;23;20443;-86
2021/07/26 12:55:43;;;;;;;4.87;3.07;;;24.60;95.30;;;;;;6093153;23;20443;-86
2021/07/26 12:58:15;;;;;;;3.40;3.10;;;24.80;96.10;;;;;;6090935;23;20442;-86
2021/07/26 13:00:44;;;;;;;3.60;3.10;;;25.30;94.40;;;;;;6079916;23;20567;-86